createdAt,value
2022-09-14T00:01:25.383Z,17.62
2022-09-14T00:06:30.979Z,17.19
2022-09-14T00:11:36.474Z,18.83
2022-09-14T00:16:42.489Z,19.41
2022-09-14T00:21:45.950Z,19.69
2022-09-14T00:26:49.749Z,20.11
2022-09-14T00:31:53.157Z,19.67
2022-09-14T00:36:56.407Z,17.37
2022-09-14T00:41:59.910Z,16.92
2022-09-14T00:47:03.630Z,18.71
2022-09-14T00:52:19.233Z,19.67
2022-09-14T00:57:24.798Z,20.20
2022-09-14T01:02:29.681Z,19.58
2022-09-14T01:08:16.412Z,17.35
2022-09-14T01:13:42.561Z,15.74
2022-09-14T01:18:53.012Z,16.12
2022-09-14T01:24:38.149Z,18.28
2022-09-14T01:30:07.485Z,19.40
2022-09-14T01:35:34.168Z,19.94
2022-09-14T01:40:49.686Z,19.24
2022-09-14T01:46:08.303Z,16.92
2022-09-14T01:51:19.633Z,15.39
2022-09-14T01:56:39.228Z,15.77
2022-09-14T02:01:53.108Z,18.04
2022-09-14T02:06:57.210Z,18.95
2022-09-14T02:12:01.136Z,19.40
2022-09-14T02:17:04.781Z,19.78
2022-09-14T02:22:08.165Z,20.04
2022-09-14T02:27:11.294Z,19.40
2022-09-14T02:32:35.252Z,17.11
2022-09-14T02:38:06.947Z,16.82
2022-09-14T02:43:34.839Z,18.66
2022-09-14T02:48:40.906Z,19.39
2022-09-14T02:54:09.309Z,19.76
2022-09-14T02:59:12.408Z,19.01
2022-09-14T03:04:15.849Z,16.66
2022-09-14T03:09:19.242Z,16.30
2022-09-14T03:14:22.347Z,18.12
2022-09-14T03:19:25.453Z,19.01
2022-09-14T03:24:28.557Z,19.45
2022-09-14T03:29:31.696Z,19.15
2022-09-14T03:34:34.874Z,16.90
2022-09-14T03:39:37.978Z,16.27
2022-09-14T03:44:41.085Z,18.01
2022-09-14T03:49:44.191Z,18.84
2022-09-14T03:54:47.323Z,19.27
2022-09-14T03:59:50.821Z,19.61
2022-09-14T04:04:54.026Z,18.76
2022-09-14T04:09:57.175Z,16.27
2022-09-14T04:15:00.234Z,16.83
2022-09-14T04:20:04.629Z,18.37
2022-09-14T04:25:08.606Z,18.73
2022-09-14T04:30:13.043Z,19.19
2022-09-14T04:35:16.141Z,19.59
2022-09-14T04:40:19.328Z,18.46
2022-09-14T04:45:22.555Z,17.50
2022-09-14T04:50:25.667Z,18.77
2022-09-14T04:55:28.776Z,19.39
2022-09-14T05:00:36.252Z,19.66
2022-09-14T05:05:44.317Z,19.92
2022-09-14T05:10:48.237Z,20.22
2022-09-14T05:15:52.016Z,20.37
2022-09-14T05:20:55.080Z,19.20
2022-09-14T05:25:59.186Z,17.02
2022-09-14T05:31:13.250Z,16.96
2022-09-14T05:36:17.605Z,18.99
2022-09-14T05:41:20.996Z,19.83
2022-09-14T05:46:24.245Z,20.11
2022-09-14T05:51:28.823Z,20.48
2022-09-14T05:56:32.156Z,20.00
2022-09-14T06:01:35.511Z,17.82
2022-09-14T06:06:38.881Z,17.50
2022-09-14T06:11:42.799Z,19.37
2022-09-14T06:16:46.935Z,20.07
2022-09-14T06:21:50.035Z,20.36
2022-09-14T06:26:53.243Z,20.68
2022-09-14T06:31:56.351Z,20.06
2022-09-14T06:36:59.762Z,18.06
2022-09-14T06:42:03.012Z,18.87
2022-09-14T06:47:07.106Z,20.45
2022-09-14T06:52:10.223Z,21.19
2022-09-14T06:57:13.316Z,20.23
2022-09-14T07:02:16.460Z,18.37
2022-09-14T07:07:19.832Z,18.55
2022-09-14T07:12:22.938Z,20.88
2022-09-14T07:17:25.947Z,19.81
2022-09-14T07:22:29.153Z,18.17
2022-09-14T07:27:34.270Z,18.68
2022-09-14T07:32:37.338Z,21.31
2022-09-14T07:37:40.521Z,21.09
2022-09-14T07:42:43.668Z,19.02
2022-09-14T07:47:48.685Z,19.43
2022-09-14T07:52:52.501Z,20.37
2022-09-14T07:57:56.970Z,18.90
2022-09-14T08:03:00.346Z,18.68
2022-09-14T08:08:03.677Z,20.12
2022-09-14T08:13:06.864Z,18.61
2022-09-14T08:18:09.978Z,19.06
2022-09-14T08:23:13.493Z,21.30
2022-09-14T08:28:16.601Z,20.75
2022-09-14T08:33:19.721Z,19.33
2022-09-14T08:38:23.412Z,18.48
2022-09-14T08:43:28.125Z,19.81
2022-09-14T08:48:37.703Z,19.98
2022-09-14T08:53:42.898Z,18.80
2022-09-14T08:59:25.696Z,19.06
2022-09-14T09:04:53.613Z,20.18
2022-09-14T09:09:58.576Z,18.99
2022-09-14T09:15:22.138Z,18.54
2022-09-14T09:20:51.972Z,18.46
2022-09-14T09:26:16.789Z,20.49
2022-09-14T09:31:33.448Z,19.49
2022-09-14T09:36:41.243Z,18.70
2022-09-14T09:41:51.234Z,18.57
2022-09-14T09:47:02.126Z,18.60
2022-09-14T09:52:24.400Z,18.67
2022-09-14T09:57:36.907Z,18.68
2022-09-14T10:02:41.811Z,18.55
2022-09-14T10:07:50.510Z,18.52
2022-09-14T10:12:57.041Z,18.72
2022-09-14T10:18:12.325Z,18.68
2022-09-14T10:23:18.419Z,18.59
2022-09-14T10:28:33.992Z,18.57
2022-09-14T10:33:37.112Z,18.57
2022-09-14T10:38:50.904Z,18.72
2022-09-14T10:44:24.692Z,18.83
2022-09-14T10:50:31.794Z,18.95
2022-09-14T10:56:23.971Z,18.85
2022-09-14T11:01:45.614Z,18.58
2022-09-14T11:07:12.554Z,18.30
2022-09-14T11:12:52.259Z,18.15
2022-09-14T11:18:19.799Z,18.09
2022-09-14T11:23:43.882Z,18.08
2022-09-14T11:28:59.190Z,19.50
2022-09-14T11:34:38.453Z,22.34
2022-09-14T11:40:47.025Z,22.63
2022-09-14T11:46:06.337Z,21.13
2022-09-14T11:51:23.093Z,20.54
2022-09-14T11:56:34.087Z,20.06
2022-09-14T12:01:41.594Z,19.73
2022-09-14T12:06:50.133Z,19.55
2022-09-14T12:12:00.525Z,19.37
2022-09-14T12:17:40.340Z,19.25
2022-09-14T12:22:49.924Z,19.08
2022-09-14T12:27:54.159Z,18.97
2022-09-14T12:32:57.384Z,18.87
2022-09-14T12:38:29.255Z,18.76
2022-09-14T12:43:33.689Z,18.69
2022-09-14T12:49:26.559Z,18.76
2022-09-14T12:55:27.831Z,18.85
2022-09-14T13:00:49.580Z,18.83
2022-09-14T13:05:52.677Z,18.92
2022-09-14T13:10:55.830Z,19.02
2022-09-14T13:16:07.655Z,19.40
2022-09-14T13:21:24.980Z,19.82
2022-09-14T13:26:31.847Z,20.08
2022-09-14T13:31:39.748Z,20.20
2022-09-14T13:36:44.839Z,20.19
2022-09-14T13:41:48.420Z,20.24
2022-09-14T13:46:52.347Z,20.13
2022-09-14T13:52:33.959Z,19.90
2022-09-14T13:58:16.452Z,19.67
2022-09-14T14:03:48.633Z,19.57
2022-09-14T14:09:05.777Z,19.61
2022-09-14T14:14:30.772Z,19.64
2022-09-14T14:19:34.550Z,19.58
2022-09-14T14:24:55.715Z,19.61
2022-09-14T14:30:04.446Z,19.59
2022-09-14T14:35:22.566Z,19.50
2022-09-14T14:40:28.060Z,19.43
2022-09-14T14:45:36.365Z,19.31
2022-09-14T14:50:40.301Z,19.11
2022-09-14T14:55:43.493Z,18.86
2022-09-14T15:00:48.139Z,18.64
2022-09-14T15:05:51.549Z,18.45
2022-09-14T15:10:58.288Z,18.47
2022-09-14T15:16:01.407Z,18.54
2022-09-14T15:21:05.491Z,18.58
2022-09-14T15:26:08.685Z,18.57
2022-09-14T15:31:13.513Z,18.55
2022-09-14T15:36:51.763Z,18.55
2022-09-14T15:41:56.811Z,18.48
2022-09-14T15:47:00.140Z,18.41
2022-09-14T15:52:04.155Z,18.34
2022-09-14T15:57:11.904Z,18.29
2022-09-14T16:02:17.115Z,18.23
2022-09-14T16:07:20.666Z,18.12
2022-09-14T16:12:23.856Z,18.06
2022-09-14T16:17:27.153Z,17.99
2022-09-14T16:22:30.603Z,17.93
2022-09-14T16:27:34.085Z,19.02
2022-09-14T16:32:37.393Z,21.71
2022-09-14T16:37:40.499Z,22.09
2022-09-14T16:42:44.017Z,20.57
2022-09-14T16:47:47.046Z,19.60
2022-09-14T16:52:50.126Z,18.96
2022-09-14T16:57:53.234Z,18.45
2022-09-14T17:02:56.337Z,18.04
2022-09-14T17:07:59.441Z,17.72
2022-09-14T17:13:02.565Z,17.47
2022-09-14T17:18:05.756Z,18.52
2022-09-14T17:23:08.759Z,21.16
2022-09-14T17:28:11.868Z,21.52
2022-09-14T17:33:14.974Z,19.84
2022-09-14T17:38:19.484Z,18.79
2022-09-14T17:43:22.619Z,18.07
2022-09-14T17:48:27.973Z,17.54
2022-09-14T17:53:31.185Z,17.15
2022-09-14T17:58:36.079Z,16.84
2022-09-14T18:03:41.964Z,17.75
2022-09-14T18:08:46.671Z,20.41
2022-09-14T18:13:51.175Z,20.84
2022-09-14T18:18:55.011Z,19.20
2022-09-14T18:23:58.540Z,18.12
2022-09-14T18:29:03.889Z,17.38
2022-09-14T18:34:08.522Z,16.81
2022-09-14T18:39:13.392Z,17.44
2022-09-14T18:44:16.603Z,19.94
2022-09-14T18:49:19.909Z,20.39
2022-09-14T18:54:27.457Z,18.76
2022-09-14T18:59:31.330Z,17.67
2022-09-14T19:04:34.854Z,16.94
2022-09-14T19:09:38.054Z,16.35
2022-09-14T19:14:41.260Z,15.92
2022-09-14T19:19:44.470Z,16.72
2022-09-14T19:24:47.581Z,19.32
2022-09-14T19:29:52.641Z,19.80
2022-09-14T19:34:55.936Z,18.17
2022-09-14T19:39:59.206Z,17.14
2022-09-14T19:45:03.985Z,16.47
2022-09-14T19:50:09.326Z,15.98
2022-09-14T19:55:12.505Z,16.79
2022-09-14T20:00:18.175Z,19.43
2022-09-14T20:05:21.947Z,20.83
2022-09-14T20:10:26.795Z,20.76
2022-09-14T20:15:30.566Z,18.88
2022-09-14T20:20:37.789Z,17.63
2022-09-14T20:25:40.860Z,16.81
2022-09-14T20:30:44.126Z,16.20
2022-09-14T20:35:49.204Z,16.89
2022-09-14T20:41:06.816Z,19.56
2022-09-14T20:46:15.134Z,20.95
2022-09-14T20:51:20.891Z,20.81
2022-09-14T20:56:31.160Z,18.94
2022-09-14T21:01:37.364Z,17.69
2022-09-14T21:06:52.779Z,16.84
2022-09-14T21:11:56.187Z,17.41
2022-09-14T21:16:59.606Z,19.86
2022-09-14T21:22:03.012Z,20.14
2022-09-14T21:27:07.835Z,18.39
2022-09-14T21:32:11.071Z,17.19
2022-09-14T21:37:14.484Z,16.44
2022-09-14T21:42:17.477Z,17.07
2022-09-14T21:47:20.795Z,19.62
2022-09-14T21:52:23.927Z,20.90
2022-09-14T21:57:26.979Z,20.72
2022-09-14T22:02:30.200Z,18.76
2022-09-14T22:07:33.450Z,17.49
2022-09-14T22:12:36.531Z,16.66
2022-09-14T22:17:39.562Z,17.20
2022-09-14T22:22:44.663Z,19.84
2022-09-14T22:27:47.600Z,20.31
2022-09-14T22:32:50.625Z,18.38
2022-09-14T22:37:53.629Z,17.16
2022-09-14T22:42:56.611Z,16.38
2022-09-14T22:47:59.570Z,17.05
2022-09-14T22:53:02.551Z,19.64
2022-09-14T22:58:06.737Z,20.91
2022-09-14T23:03:11.512Z,20.81
2022-09-14T23:08:14.557Z,18.89
2022-09-14T23:13:17.602Z,17.60
2022-09-14T23:18:20.591Z,16.67
2022-09-14T23:23:23.555Z,17.11
2022-09-14T23:28:26.521Z,19.68
2022-09-14T23:33:31.094Z,20.89
2022-09-14T23:38:35.546Z,20.57
2022-09-14T23:43:38.686Z,18.57
2022-09-14T23:48:41.839Z,17.35
2022-09-14T23:53:45.207Z,16.51
2022-09-14T23:58:48.613Z,16.99
